createdAt,value
2018-09-21T00:00:15.582Z,73.50
2018-09-21T00:02:44.108Z,73.50
2018-09-21T00:05:12.565Z,73.00
2018-09-21T00:07:41.015Z,72.90
2018-09-21T00:10:09.482Z,73.50
2018-09-21T00:12:37.948Z,72.50
2018-09-21T00:15:06.435Z,72.00
2018-09-21T00:17:34.910Z,71.70
2018-09-21T00:20:03.408Z,71.70
2018-09-21T00:22:31.830Z,71.90
2018-09-21T00:25:00.277Z,72.00
2018-09-21T00:27:28.754Z,72.00
2018-09-21T00:29:57.819Z,72.10
2018-09-21T00:32:26.266Z,71.90
2018-09-21T00:34:54.813Z,71.70
2018-09-21T00:37:23.301Z,71.50
2018-09-21T00:39:51.831Z,71.60
2018-09-21T00:42:20.374Z,71.50
2018-09-21T00:44:48.828Z,71.40
2018-09-21T00:47:17.261Z,72.40
2018-09-21T00:49:45.773Z,71.70
2018-09-21T00:52:14.236Z,71.70
2018-09-21T00:54:43.216Z,71.50
2018-09-21T00:57:11.669Z,71.70
2018-09-21T00:59:40.137Z,72.00
2018-09-21T01:02:08.603Z,72.10
2018-09-21T01:04:44.307Z,72.00
2018-09-21T01:07:14.503Z,72.80
2018-09-21T01:09:43.469Z,72.00
2018-09-21T01:12:11.901Z,71.60
2018-09-21T01:14:40.641Z,71.40
2018-09-21T01:17:09.077Z,71.40
2018-09-21T01:19:37.553Z,71.10
2018-09-21T01:22:06.110Z,71.30
2018-09-21T01:24:34.569Z,71.00
2018-09-21T01:27:03.027Z,70.70
2018-09-21T01:29:34.449Z,70.30
2018-09-21T01:32:02.873Z,70.40
2018-09-21T01:34:31.402Z,70.30
2018-09-21T01:36:59.838Z,70.30
2018-09-21T01:39:28.265Z,69.70
2018-09-21T01:41:56.714Z,70.50
2018-09-21T01:44:25.150Z,69.70
2018-09-21T01:46:53.601Z,69.50
2018-09-21T01:49:22.038Z,69.40
2018-09-21T01:51:50.481Z,69.40
2018-09-21T01:54:18.946Z,69.30
2018-09-21T01:56:47.417Z,69.40
2018-09-21T01:59:15.874Z,69.70
2018-09-21T02:01:44.412Z,69.90
2018-09-21T02:04:12.842Z,69.90
2018-09-21T02:06:41.310Z,70.20
2018-09-21T02:09:10.583Z,70.20
2018-09-21T02:11:39.009Z,70.20
2018-09-21T02:14:07.637Z,70.00
2018-09-21T02:16:36.119Z,70.00
2018-09-21T02:19:04.591Z,70.30
2018-09-21T02:21:33.025Z,70.00
2018-09-21T02:24:01.498Z,70.40
2018-09-21T02:26:29.994Z,70.50
2018-09-21T02:28:58.445Z,71.00
2018-09-21T02:31:27.047Z,71.00
2018-09-21T02:33:55.572Z,70.90
2018-09-21T02:36:24.718Z,71.10
2018-09-21T02:38:53.317Z,71.70
2018-09-21T02:41:21.878Z,71.70
2018-09-21T02:43:50.333Z,71.60
2018-09-21T02:46:18.762Z,71.80
2018-09-21T02:48:54.054Z,71.70
2018-09-21T02:51:22.485Z,71.90
2018-09-21T02:53:50.952Z,72.10
2018-09-21T02:56:20.321Z,72.30
2018-09-21T02:58:49.038Z,72.40
2018-09-21T03:01:17.763Z,72.50
2018-09-21T03:03:46.206Z,72.40
2018-09-21T03:06:14.835Z,72.40
2018-09-21T03:08:43.589Z,72.50
2018-09-21T03:11:12.966Z,72.90
2018-09-21T03:13:41.675Z,73.30
2018-09-21T03:16:10.121Z,73.70
2018-09-21T03:18:38.564Z,74.00
2018-09-21T03:21:07.034Z,74.20
2018-09-21T03:23:35.505Z,74.30
2018-09-21T03:26:03.950Z,75.30
2018-09-21T03:28:32.392Z,74.60
2018-09-21T03:31:00.824Z,74.60
2018-09-21T03:33:29.257Z,75.00
2018-09-21T03:35:57.724Z,75.00
2018-09-21T03:38:26.190Z,75.20
2018-09-21T03:40:54.665Z,75.30
2018-09-21T03:43:23.156Z,75.50
2018-09-21T03:45:51.751Z,75.90
2018-09-21T03:48:20.193Z,76.10
2018-09-21T03:50:48.636Z,76.30
2018-09-21T03:53:18.128Z,76.30
2018-09-21T03:55:46.818Z,76.90
2018-09-21T03:58:15.269Z,76.90
2018-09-21T04:00:43.714Z,77.00
2018-09-21T04:03:12.178Z,77.20
2018-09-21T04:05:40.653Z,77.30
2018-09-21T04:08:09.143Z,77.70
2018-09-21T04:10:37.616Z,77.90
2018-09-21T04:13:06.117Z,78.00
2018-09-21T04:15:34.634Z,78.30
2018-09-21T04:18:03.111Z,78.50
2018-09-21T04:20:31.569Z,78.90
2018-09-21T04:23:02.654Z,79.40
2018-09-21T04:25:31.805Z,78.90
2018-09-21T04:28:00.253Z,80.00
2018-09-21T04:30:29.144Z,79.90
2018-09-21T04:32:59.183Z,80.20
2018-09-21T04:35:27.631Z,80.60
2018-09-21T04:37:56.081Z,80.80
2018-09-21T04:40:24.558Z,81.10
2018-09-21T04:42:53.009Z,81.30
2018-09-21T04:45:21.442Z,81.70
2018-09-21T04:47:49.888Z,81.80
2018-09-21T04:50:18.360Z,82.20
2018-09-21T04:52:46.831Z,82.50
2018-09-21T04:55:15.270Z,82.90
2018-09-21T04:57:43.702Z,83.10
2018-09-21T05:00:12.497Z,83.10
2018-09-21T05:02:40.918Z,83.20
2018-09-21T05:05:09.357Z,83.10
2018-09-21T05:07:37.809Z,83.20
2018-09-21T05:10:06.257Z,83.30
2018-09-21T05:12:34.706Z,83.20
2018-09-21T05:15:03.166Z,83.30
2018-09-21T05:17:31.670Z,83.30
2018-09-21T05:20:00.094Z,83.30
2018-09-21T05:22:28.579Z,83.40
2018-09-21T05:24:57.016Z,83.80
2018-09-21T05:27:25.546Z,82.90
2018-09-21T05:29:53.989Z,82.30
2018-09-21T05:32:22.425Z,81.70
2018-09-21T05:34:50.919Z,80.60
2018-09-21T05:37:19.353Z,78.80
2018-09-21T05:39:47.786Z,78.20
2018-09-21T05:42:16.249Z,76.50
2018-09-21T05:44:44.738Z,74.20
2018-09-21T05:47:13.228Z,74.40
2018-09-21T05:49:41.652Z,73.90
2018-09-21T05:52:10.645Z,70.60
2018-09-21T05:54:39.708Z,69.00
2018-09-21T05:57:08.149Z,67.90
2018-09-21T05:59:36.676Z,67.20
2018-09-21T06:02:05.225Z,66.80
2018-09-21T06:04:33.618Z,66.60
2018-09-21T06:07:02.113Z,65.10
2018-09-21T06:09:30.637Z,64.00
2018-09-21T06:11:59.061Z,63.70
2018-09-21T06:14:27.508Z,63.60
2018-09-21T06:16:55.977Z,63.90
2018-09-21T06:19:24.444Z,63.30
2018-09-21T06:21:52.922Z,62.80
2018-09-21T06:24:21.407Z,63.30
2018-09-21T06:26:49.878Z,63.60
2018-09-21T06:29:18.326Z,63.90
2018-09-21T06:31:46.839Z,64.40
2018-09-21T06:34:15.285Z,64.60
2018-09-21T06:36:43.763Z,64.70
2018-09-21T06:39:12.431Z,64.80
2018-09-21T06:41:40.885Z,65.30
2018-09-21T06:44:09.735Z,65.70
2018-09-21T06:46:38.181Z,66.10
2018-09-21T06:49:06.845Z,66.30
2018-09-21T06:51:35.267Z,66.90
2018-09-21T06:54:03.730Z,67.10
2018-09-21T06:56:32.186Z,67.40
2018-09-21T06:59:00.636Z,68.20
2018-09-21T07:01:29.165Z,68.70
2018-09-21T07:03:57.566Z,69.20
2018-09-21T07:06:25.989Z,69.90
2018-09-21T07:08:54.446Z,70.20
2018-09-21T07:11:22.897Z,70.70
2018-09-21T07:13:51.494Z,71.60
2018-09-21T07:16:19.917Z,72.10
2018-09-21T07:18:48.381Z,72.80
2018-09-21T07:21:16.825Z,74.00
2018-09-21T07:23:45.333Z,75.40
2018-09-21T07:26:13.829Z,75.90
2018-09-21T07:28:42.306Z,75.30
2018-09-21T07:31:10.873Z,74.90
2018-09-21T07:33:39.922Z,74.60
2018-09-21T07:36:08.540Z,74.40
2018-09-21T07:38:37.046Z,74.00
2018-09-21T07:41:05.675Z,74.20
2018-09-21T07:43:34.109Z,74.10
2018-09-21T07:46:02.544Z,73.90
2018-09-21T07:48:31.306Z,74.20
2018-09-21T07:50:59.790Z,73.80
2018-09-21T07:53:28.378Z,73.90
2018-09-21T07:55:56.816Z,74.60
2018-09-21T07:58:25.245Z,79.00
2018-09-21T08:00:53.677Z,83.70
2018-09-21T08:03:22.133Z,89.50
2018-09-21T08:05:50.558Z,91.40
2018-09-21T08:08:18.995Z,93.20
2018-09-21T08:10:47.587Z,95.20
2018-09-21T08:13:16.043Z,97.70
2018-09-21T08:15:44.648Z,99.00
2018-09-21T08:18:13.858Z,99.90
2018-09-21T08:20:42.293Z,99.90
2018-09-21T08:23:10.793Z,99.90
2018-09-21T08:25:39.776Z,99.90
2018-09-21T08:28:08.245Z,99.90
2018-09-21T08:30:36.812Z,99.90
2018-09-21T08:33:05.711Z,99.90
2018-09-21T08:35:34.325Z,99.90
2018-09-21T08:38:02.830Z,99.90
2018-09-21T08:40:31.444Z,99.90
2018-09-21T08:43:00.159Z,99.90
2018-09-21T08:45:28.712Z,99.90
2018-09-21T08:47:57.174Z,99.90
2018-09-21T08:50:25.677Z,99.90
2018-09-21T08:52:54.167Z,99.90
2018-09-21T08:55:22.638Z,99.90
2018-09-21T08:57:51.078Z,99.90
2018-09-21T09:00:19.549Z,99.90
2018-09-21T09:02:48.082Z,99.90
2018-09-21T09:05:16.551Z,99.90
2018-09-21T09:07:44.981Z,99.90
2018-09-21T09:10:13.493Z,99.90
2018-09-21T09:12:41.918Z,99.90
2018-09-21T09:15:10.334Z,99.90
2018-09-21T09:17:38.819Z,99.90
2018-09-21T09:20:08.576Z,99.90
2018-09-21T09:22:37.092Z,99.90
2018-09-21T09:25:06.683Z,99.90
2018-09-21T09:27:35.421Z,99.90
2018-09-21T09:30:04.965Z,99.90
2018-09-21T09:32:33.358Z,99.90
2018-09-21T09:35:01.836Z,99.90
2018-09-21T09:37:30.273Z,99.90
2018-09-21T09:39:58.699Z,99.90
2018-09-21T09:42:27.202Z,99.90
2018-09-21T09:44:55.648Z,99.90
2018-09-21T09:47:24.337Z,99.90
2018-09-21T09:49:52.797Z,99.90
2018-09-21T09:52:21.336Z,99.90
2018-09-21T09:54:49.788Z,99.90
2018-09-21T09:57:18.294Z,99.80
2018-09-21T09:59:46.716Z,99.20
2018-09-21T10:02:15.166Z,99.40
2018-09-21T10:04:43.582Z,98.80
2018-09-21T10:07:12.170Z,98.60
2018-09-21T10:09:40.748Z,98.70
2018-09-21T10:12:09.179Z,97.70
2018-09-21T10:14:37.627Z,97.30
2018-09-21T10:17:06.079Z,96.20
2018-09-21T10:19:34.500Z,96.20
2018-09-21T10:22:03.029Z,96.80
2018-09-21T10:24:31.500Z,96.40
2018-09-21T10:26:59.985Z,95.90
2018-09-21T10:29:28.400Z,96.40
2018-09-21T10:31:56.966Z,95.60
2018-09-21T10:34:25.454Z,96.10
2018-09-21T10:36:53.891Z,97.00
2018-09-21T10:39:22.568Z,95.50
2018-09-21T10:41:51.040Z,95.40
2018-09-21T10:44:19.494Z,95.80
2018-09-21T10:46:48.833Z,96.40
2018-09-21T10:49:17.315Z,95.50
2018-09-21T10:51:46.074Z,95.10
2018-09-21T10:54:14.544Z,93.90
2018-09-21T10:56:42.979Z,92.90
2018-09-21T10:59:11.572Z,93.90
2018-09-21T11:01:40.044Z,93.50
2018-09-21T11:04:08.498Z,93.20
2018-09-21T11:06:36.990Z,93.00
2018-09-21T11:09:09.428Z,93.00
2018-09-21T11:11:38.463Z,92.70
2018-09-21T11:14:07.890Z,92.30
2018-09-21T11:16:36.396Z,91.80
2018-09-21T11:19:04.966Z,91.60
2018-09-21T11:21:33.465Z,91.90
2018-09-21T11:24:01.950Z,91.00
2018-09-21T11:26:30.429Z,91.00
2018-09-21T11:28:58.930Z,91.40
2018-09-21T11:31:27.427Z,93.20
2018-09-21T11:33:55.885Z,95.50
2018-09-21T11:36:24.346Z,97.00
2018-09-21T11:38:52.824Z,96.10
2018-09-21T11:41:21.291Z,97.50
2018-09-21T11:43:49.764Z,98.10
2018-09-21T11:46:18.225Z,98.60
2018-09-21T11:48:46.861Z,98.50
2018-09-21T11:51:15.337Z,98.60
2018-09-21T11:53:44.556Z,97.80
2018-09-21T11:56:13.046Z,97.70
2018-09-21T11:58:41.509Z,96.90
2018-09-21T12:01:10.277Z,95.90
2018-09-21T12:03:38.735Z,96.10
2018-09-21T12:06:07.536Z,96.20
2018-09-21T12:08:37.670Z,95.00
2018-09-21T12:11:06.390Z,95.50
2018-09-21T12:13:35.333Z,94.50
2018-09-21T12:16:04.188Z,94.10
2018-09-21T12:18:32.720Z,93.90
2018-09-21T12:21:01.192Z,94.70
2018-09-21T12:23:30.132Z,94.30
2018-09-21T12:25:58.676Z,93.40
2018-09-21T12:28:27.641Z,93.10
2018-09-21T12:30:56.231Z,92.10
2018-09-21T12:33:24.736Z,91.60
2018-09-21T12:35:53.319Z,92.20
2018-09-21T12:38:21.786Z,91.10
2018-09-21T12:40:50.257Z,90.70
2018-09-21T12:43:18.737Z,89.70
2018-09-21T12:45:47.208Z,90.00
2018-09-21T12:48:16.147Z,90.30
2018-09-21T12:50:44.752Z,87.00
2018-09-21T12:53:13.211Z,86.70
2018-09-21T12:55:41.699Z,85.90
2018-09-21T12:58:11.512Z,81.60
2018-09-21T13:00:44.890Z,82.40
2018-09-21T13:03:13.401Z,81.90
2018-09-21T13:05:41.916Z,81.60
2018-09-21T13:08:10.350Z,82.40
2018-09-21T13:10:38.819Z,81.10
2018-09-21T13:13:07.471Z,80.50
2018-09-21T13:15:35.967Z,79.10
2018-09-21T13:18:04.451Z,79.70
2018-09-21T13:20:32.892Z,80.60
2018-09-21T13:23:01.350Z,80.80
2018-09-21T13:25:29.858Z,83.50
2018-09-21T13:27:58.377Z,83.60
2018-09-21T13:30:26.920Z,84.00
2018-09-21T13:32:55.483Z,84.40
2018-09-21T13:35:23.944Z,85.20
2018-09-21T13:37:52.379Z,86.30
2018-09-21T13:40:20.974Z,84.90
2018-09-21T13:42:49.442Z,85.00
2018-09-21T13:45:18.707Z,84.90
2018-09-21T13:47:47.166Z,81.70
2018-09-21T13:50:15.648Z,79.40
2018-09-21T13:52:44.115Z,78.20
2018-09-21T13:55:12.619Z,77.30
2018-09-21T13:57:41.807Z,74.80
2018-09-21T14:00:11.923Z,75.80
2018-09-21T14:02:41.070Z,76.70
2018-09-21T14:05:09.590Z,75.70
2018-09-21T14:07:38.621Z,73.70
2018-09-21T14:10:07.720Z,67.40
2018-09-21T14:12:36.211Z,64.50
2018-09-21T14:15:05.403Z,60.70
2018-09-21T14:17:33.898Z,59.70
2018-09-21T14:20:02.629Z,58.10
2018-09-21T14:22:31.097Z,56.10
2018-09-21T14:24:59.555Z,56.30
2018-09-21T14:27:28.192Z,57.00
2018-09-21T14:29:56.649Z,55.30
2018-09-21T14:32:25.107Z,55.40
2018-09-21T14:34:53.561Z,55.80
2018-09-21T14:37:22.034Z,54.50
2018-09-21T14:39:50.526Z,55.00
2018-09-21T14:42:19.033Z,57.30
2018-09-21T14:44:47.508Z,59.20
2018-09-21T14:47:15.958Z,60.70
2018-09-21T14:49:44.442Z,59.50
2018-09-21T14:52:13.260Z,58.50
2018-09-21T14:54:41.752Z,58.50
2018-09-21T14:57:10.586Z,57.30
2018-09-21T14:59:39.133Z,56.20
2018-09-21T15:02:08.123Z,56.90
2018-09-21T15:04:36.776Z,58.40
2018-09-21T15:07:05.510Z,59.70
2018-09-21T15:09:33.988Z,59.80
2018-09-21T15:12:02.490Z,59.40
2018-09-21T15:14:30.927Z,60.00
2018-09-21T15:16:59.378Z,61.30
2018-09-21T15:19:27.834Z,62.00
2018-09-21T15:21:56.313Z,63.00
2018-09-21T15:24:24.774Z,63.10
2018-09-21T15:26:53.239Z,63.90
2018-09-21T15:29:22.142Z,65.00
2018-09-21T15:31:51.316Z,64.70
2018-09-21T15:34:19.806Z,64.70
2018-09-21T15:36:48.270Z,65.30
2018-09-21T15:39:16.705Z,65.40
2018-09-21T15:41:45.185Z,66.00
2018-09-21T15:44:13.657Z,65.60
2018-09-21T15:46:42.305Z,66.60
2018-09-21T15:49:10.807Z,66.50
2018-09-21T15:51:39.289Z,67.30
2018-09-21T15:54:08.169Z,67.70
2018-09-21T15:56:36.663Z,68.20
2018-09-21T15:59:05.331Z,67.70
2018-09-21T16:01:34.208Z,67.80
2018-09-21T16:04:02.752Z,68.00
2018-09-21T16:06:34.165Z,68.00
2018-09-21T16:09:05.234Z,67.70
2018-09-21T16:11:34.185Z,67.10
2018-09-21T16:14:04.345Z,66.70
2018-09-21T16:16:32.851Z,67.00
2018-09-21T16:19:01.665Z,66.30
2018-09-21T16:21:30.128Z,65.90
2018-09-21T16:23:59.470Z,64.10
2018-09-21T16:26:27.926Z,63.70
2018-09-21T16:28:56.465Z,59.70
2018-09-21T16:31:25.026Z,58.10
2018-09-21T16:33:53.580Z,57.20
2018-09-21T16:36:22.233Z,56.70
2018-09-21T16:38:50.723Z,57.40
2018-09-21T16:41:19.287Z,58.70
2018-09-21T16:43:48.381Z,59.90
2018-09-21T16:46:16.870Z,61.40
2018-09-21T16:48:45.354Z,62.40
2018-09-21T16:51:13.886Z,63.50
2018-09-21T16:53:42.326Z,65.60
2018-09-21T16:56:10.875Z,65.50
2018-09-21T16:58:39.379Z,66.40
2018-09-21T17:01:07.829Z,67.10
2018-09-21T17:03:36.330Z,67.80
2018-09-21T17:06:04.795Z,68.40
2018-09-21T17:08:33.297Z,68.50
2018-09-21T17:11:01.978Z,69.10
2018-09-21T17:13:30.636Z,69.60
2018-09-21T17:15:59.182Z,69.30
2018-09-21T17:18:27.663Z,69.20
2018-09-21T17:20:56.219Z,69.80
2018-09-21T17:23:24.662Z,70.10
2018-09-21T17:25:53.582Z,70.70
2018-09-21T17:28:22.874Z,71.10
2018-09-21T17:30:51.426Z,72.00
2018-09-21T17:33:19.946Z,72.90
2018-09-21T17:35:48.454Z,73.10
2018-09-21T17:38:16.967Z,73.10
2018-09-21T17:40:45.446Z,73.50
2018-09-21T17:43:13.910Z,74.70
2018-09-21T17:45:42.400Z,74.00
2018-09-21T17:48:10.883Z,74.20
2018-09-21T17:50:39.366Z,75.00
2018-09-21T17:53:08.294Z,74.70
2018-09-21T17:55:36.753Z,73.80
2018-09-21T17:58:05.215Z,73.80
2018-09-21T18:00:33.666Z,73.80
2018-09-21T18:03:02.231Z,72.70
2018-09-21T18:05:31.634Z,72.90
2018-09-21T18:08:00.249Z,73.10
2018-09-21T18:10:28.925Z,72.50
2018-09-21T18:12:57.408Z,72.10
2018-09-21T18:15:26.361Z,71.20
2018-09-21T18:17:56.423Z,71.60
2018-09-21T18:20:25.051Z,71.90
2018-09-21T18:22:54.692Z,71.70
2018-09-21T18:25:25.495Z,71.90
2018-09-21T18:27:54.083Z,72.10
2018-09-21T18:30:22.697Z,72.00
2018-09-21T18:32:51.235Z,71.90
2018-09-21T18:35:20.677Z,72.20
2018-09-21T18:37:49.256Z,72.20
2018-09-21T18:40:17.851Z,71.90
2018-09-21T18:42:50.210Z,71.80
2018-09-21T18:45:19.487Z,72.00
2018-09-21T18:47:48.139Z,72.00
2018-09-21T18:50:16.755Z,71.70
2018-09-21T18:52:46.972Z,72.00
2018-09-21T18:55:16.088Z,72.30
2018-09-21T18:57:45.427Z,72.80
2018-09-21T19:00:14.535Z,72.70
2018-09-21T19:02:43.030Z,72.70
2018-09-21T19:05:12.190Z,72.90
2018-09-21T19:07:40.817Z,73.00
2018-09-21T19:10:09.281Z,73.70
2018-09-21T19:12:37.855Z,74.40
2018-09-21T19:15:07.274Z,74.40
2018-09-21T19:17:35.864Z,75.20
2018-09-21T19:20:04.683Z,74.60
2018-09-21T19:22:34.090Z,75.00
2018-09-21T19:25:02.582Z,75.70
2018-09-21T19:27:31.120Z,75.80
2018-09-21T19:29:59.632Z,76.10
2018-09-21T19:32:28.884Z,76.30
2018-09-21T19:34:57.345Z,76.40
2018-09-21T19:37:26.123Z,76.70
2018-09-21T19:39:55.065Z,76.60
2018-09-21T19:42:23.757Z,76.90
2018-09-21T19:44:52.331Z,77.20
2018-09-21T19:47:20.878Z,77.50
2018-09-21T19:49:49.348Z,77.80
2018-09-21T19:52:17.873Z,78.20
2018-09-21T19:54:49.431Z,78.50
2018-09-21T19:57:18.501Z,79.00
2018-09-21T19:59:47.180Z,79.10
2018-09-21T20:02:15.685Z,79.60
2018-09-21T20:04:44.170Z,79.80
2018-09-21T20:07:12.636Z,79.60
2018-09-21T20:09:41.115Z,79.60
2018-09-21T20:12:09.552Z,79.60
2018-09-21T20:14:38.003Z,79.40
2018-09-21T20:17:06.914Z,79.60
2018-09-21T20:19:35.346Z,79.10
2018-09-21T20:22:03.878Z,79.30
2018-09-21T20:24:32.327Z,79.50
2018-09-21T20:27:01.523Z,79.40
2018-09-21T20:29:29.986Z,79.90
2018-09-21T20:32:03.842Z,80.30
2018-09-21T20:34:32.313Z,80.50
2018-09-21T20:37:00.902Z,81.70
2018-09-21T20:39:29.507Z,81.00
2018-09-21T20:41:57.973Z,81.60
2018-09-21T20:44:26.467Z,81.60
2018-09-21T20:46:54.946Z,81.60
2018-09-21T20:49:23.454Z,81.60
2018-09-21T20:51:52.014Z,81.80
2018-09-21T20:54:20.435Z,82.10
2018-09-21T20:56:48.887Z,82.30
2018-09-21T20:59:17.428Z,82.40
2018-09-21T21:01:45.854Z,82.40
2018-09-21T21:04:14.320Z,82.60
2018-09-21T21:06:42.809Z,83.00
2018-09-21T21:09:11.677Z,83.20
2018-09-21T21:11:40.182Z,84.30
2018-09-21T21:14:08.643Z,83.70
2018-09-21T21:16:37.131Z,84.00
2018-09-21T21:19:05.946Z,84.60
2018-09-21T21:21:34.454Z,85.00
2018-09-21T21:24:02.983Z,85.30
2018-09-21T21:26:31.435Z,85.70
2018-09-21T21:28:59.897Z,86.20
2018-09-21T21:31:28.346Z,86.60
2018-09-21T21:33:56.798Z,86.50
2018-09-21T21:36:25.817Z,86.50
2018-09-21T21:38:54.311Z,86.70
2018-09-21T21:41:22.890Z,87.00
2018-09-21T21:43:51.394Z,87.00
2018-09-21T21:46:19.848Z,86.90
2018-09-21T21:48:49.224Z,86.90
2018-09-21T21:51:17.712Z,87.00
2018-09-21T21:53:46.719Z,87.10
2018-09-21T21:56:15.209Z,87.20
2018-09-21T21:58:44.357Z,87.10
2018-09-21T22:01:18.201Z,87.40
2018-09-21T22:03:46.661Z,87.50
2018-09-21T22:06:15.192Z,87.50
2018-09-21T22:08:43.646Z,87.60
2018-09-21T22:11:17.542Z,87.60
2018-09-21T22:13:51.373Z,87.30
2018-09-21T22:16:19.830Z,87.90
2018-09-21T22:18:48.307Z,88.40
2018-09-21T22:21:16.781Z,88.20
2018-09-21T22:23:45.282Z,88.50
2018-09-21T22:26:13.755Z,88.70
2018-09-21T22:28:42.371Z,89.00
2018-09-21T22:31:10.800Z,89.30
2018-09-21T22:33:39.238Z,89.30
2018-09-21T22:36:08.475Z,89.50
2018-09-21T22:38:37.559Z,90.00
2018-09-21T22:41:06.215Z,89.60
2018-09-21T22:43:35.453Z,89.50
2018-09-21T22:46:04.536Z,90.00
2018-09-21T22:48:33.125Z,90.10
2018-09-21T22:51:08.203Z,90.40
2018-09-21T22:53:36.863Z,90.60
2018-09-21T22:56:05.430Z,90.60
2018-09-21T22:58:33.913Z,90.80
2018-09-21T23:01:02.430Z,90.90
2018-09-21T23:03:30.893Z,91.00
2018-09-21T23:05:59.457Z,91.10
2018-09-21T23:08:28.635Z,91.10
2018-09-21T23:10:57.138Z,91.50
2018-09-21T23:13:25.597Z,91.30
2018-09-21T23:15:54.121Z,91.40
2018-09-21T23:18:22.614Z,91.60
2018-09-21T23:20:57.477Z,91.50
2018-09-21T23:23:26.213Z,91.40
2018-09-21T23:25:54.714Z,91.50
2018-09-21T23:28:23.224Z,91.70
2018-09-21T23:30:51.730Z,91.60
2018-09-21T23:33:20.194Z,91.70
2018-09-21T23:35:48.684Z,91.80
2018-09-21T23:38:17.196Z,91.80
2018-09-21T23:40:45.670Z,91.80
2018-09-21T23:43:14.338Z,92.00
2018-09-21T23:45:42.839Z,92.00
2018-09-21T23:48:11.397Z,92.10
2018-09-21T23:50:39.924Z,92.30
2018-09-21T23:53:08.401Z,92.40
2018-09-21T23:55:36.881Z,92.40
2018-09-21T23:58:05.364Z,92.40
